sensor_id;sensor_type;location;lat;lon;timestamp;P1;durP1;ratioP1;P2;durP2;ratioP2
57947;SDS011;43754;56.992;24.292;2023-01-29T00:01:08;7.32;;;4.47;;
57947;SDS011;43754;56.992;24.292;2023-01-29T00:03:41;8.80;;;4.95;;
57947;SDS011;43754;56.992;24.292;2023-01-29T00:06:13;8.32;;;4.88;;
57947;SDS011;43754;56.992;24.292;2023-01-29T00:08:45;6.78;;;4.38;;
57947;SDS011;43754;56.992;24.292;2023-01-29T00:11:17;9.05;;;5.20;;
57947;SDS011;43754;56.992;24.292;2023-01-29T00:13:51;8.82;;;4.78;;
57947;SDS011;43754;56.992;24.292;2023-01-29T00:16:24;7.97;;;4.93;;
57947;SDS011;43754;56.992;24.292;2023-01-29T00:18:56;9.25;;;5.00;;
57947;SDS011;43754;56.992;24.292;2023-01-29T00:21:28;8.02;;;4.45;;
57947;SDS011;43754;56.992;24.292;2023-01-29T00:24:01;8.93;;;5.10;;
57947;SDS011;43754;56.992;24.292;2023-01-29T00:26:33;9.40;;;5.55;;
57947;SDS011;43754;56.992;24.292;2023-01-29T00:29:05;10.73;;;5.43;;
57947;SDS011;43754;56.992;24.292;2023-01-29T00:31:39;7.60;;;4.53;;
57947;SDS011;43754;56.992;24.292;2023-01-29T00:34:11;7.72;;;5.13;;
57947;SDS011;43754;56.992;24.292;2023-01-29T00:36:43;8.07;;;5.30;;
57947;SDS011;43754;56.992;24.292;2023-01-29T00:39:16;8.27;;;4.90;;
57947;SDS011;43754;56.992;24.292;2023-01-29T00:42:06;9.23;;;5.45;;
57947;SDS011;43754;56.992;24.292;2023-01-29T00:47:30;8.25;;;5.43;;
57947;SDS011;43754;56.992;24.292;2023-01-29T00:50:04;9.68;;;4.53;;
57947;SDS011;43754;56.992;24.292;2023-01-29T00:52:38;10.57;;;6.38;;
57947;SDS011;43754;56.992;24.292;2023-01-29T00:55:13;11.13;;;5.85;;
57947;SDS011;43754;56.992;24.292;2023-01-29T00:57:45;8.52;;;6.18;;
57947;SDS011;43754;56.992;24.292;2023-01-29T01:00:17;11.80;;;6.72;;
57947;SDS011;43754;56.992;24.292;2023-01-29T01:02:51;9.52;;;5.93;;
57947;SDS011;43754;56.992;24.292;2023-01-29T01:05:36;10.20;;;6.75;;
57947;SDS011;43754;56.992;24.292;2023-01-29T01:08:09;8.43;;;5.85;;
57947;SDS011;43754;56.992;24.292;2023-01-29T01:11:01;11.63;;;6.88;;
57947;SDS011;43754;56.992;24.292;2023-01-29T01:13:35;10.13;;;6.25;;
57947;SDS011;43754;56.992;24.292;2023-01-29T01:16:08;10.98;;;6.65;;
57947;SDS011;43754;56.992;24.292;2023-01-29T01:18:42;11.52;;;7.50;;
57947;SDS011;43754;56.992;24.292;2023-01-29T01:21:14;12.40;;;7.82;;
57947;SDS011;43754;56.992;24.292;2023-01-29T01:23:46;11.18;;;7.15;;
57947;SDS011;43754;56.992;24.292;2023-01-29T01:26:18;9.80;;;6.50;;
57947;SDS011;43754;56.992;24.292;2023-01-29T01:28:50;13.57;;;7.25;;
57947;SDS011;43754;56.992;24.292;2023-01-29T01:31:22;13.45;;;7.22;;
57947;SDS011;43754;56.992;24.292;2023-01-29T01:33:56;11.18;;;7.72;;
57947;SDS011;43754;56.992;24.292;2023-01-29T01:36:29;11.48;;;6.97;;
57947;SDS011;43754;56.992;24.292;2023-01-29T01:39:02;11.80;;;7.63;;
57947;SDS011;43754;56.992;24.292;2023-01-29T01:41:34;14.18;;;7.60;;
57947;SDS011;43754;56.992;24.292;2023-01-29T01:47:22;12.80;;;7.70;;
57947;SDS011;43754;56.992;24.292;2023-01-29T01:50:00;14.88;;;8.57;;
57947;SDS011;43754;56.992;24.292;2023-01-29T01:52:39;15.35;;;8.13;;
57947;SDS011;43754;56.992;24.292;2023-01-29T01:55:14;15.90;;;8.63;;
57947;SDS011;43754;56.992;24.292;2023-01-29T01:57:51;16.23;;;9.45;;
57947;SDS011;43754;56.992;24.292;2023-01-29T02:00:28;15.63;;;8.98;;
57947;SDS011;43754;56.992;24.292;2023-01-29T02:03:00;12.60;;;7.65;;
57947;SDS011;43754;56.992;24.292;2023-01-29T02:05:53;13.45;;;7.70;;
57947;SDS011;43754;56.992;24.292;2023-01-29T02:08:48;12.30;;;8.45;;
57947;SDS011;43754;56.992;24.292;2023-01-29T02:11:44;12.13;;;8.48;;
57947;SDS011;43754;56.992;24.292;2023-01-29T02:14:16;12.00;;;7.88;;
57947;SDS011;43754;56.992;24.292;2023-01-29T02:16:49;14.05;;;9.38;;
57947;SDS011;43754;56.992;24.292;2023-01-29T02:19:23;14.45;;;9.93;;
57947;SDS011;43754;56.992;24.292;2023-01-29T02:22:16;12.23;;;6.63;;
57947;SDS011;43754;56.992;24.292;2023-01-29T02:31:00;14.70;;;8.95;;
57947;SDS011;43754;56.992;24.292;2023-01-29T02:33:41;15.13;;;8.55;;
57947;SDS011;43754;56.992;24.292;2023-01-29T02:36:26;11.77;;;8.88;;
57947;SDS011;43754;56.992;24.292;2023-01-29T02:39:08;13.75;;;9.70;;
57947;SDS011;43754;56.992;24.292;2023-01-29T02:41:48;13.65;;;9.52;;
57947;SDS011;43754;56.992;24.292;2023-01-29T02:44:29;18.73;;;9.27;;
57947;SDS011;43754;56.992;24.292;2023-01-29T02:47:09;13.90;;;8.90;;
57947;SDS011;43754;56.992;24.292;2023-01-29T02:52:24;12.07;;;8.07;;
57947;SDS011;43754;56.992;24.292;2023-01-29T02:54:59;15.23;;;8.60;;
57947;SDS011;43754;56.992;24.292;2023-01-29T02:57:38;11.95;;;8.32;;
57947;SDS011;43754;56.992;24.292;2023-01-29T03:00:15;14.20;;;9.70;;
57947;SDS011;43754;56.992;24.292;2023-01-29T03:02:51;15.98;;;8.70;;
57947;SDS011;43754;56.992;24.292;2023-01-29T03:05:30;14.13;;;8.68;;
57947;SDS011;43754;56.992;24.292;2023-01-29T03:08:05;12.77;;;8.52;;
57947;SDS011;43754;56.992;24.292;2023-01-29T03:10:43;11.88;;;8.25;;
57947;SDS011;43754;56.992;24.292;2023-01-29T03:13:19;10.85;;;8.45;;
57947;SDS011;43754;56.992;24.292;2023-01-29T03:16:03;12.40;;;8.52;;
57947;SDS011;43754;56.992;24.292;2023-01-29T03:18:49;13.68;;;8.75;;
57947;SDS011;43754;56.992;24.292;2023-01-29T03:21:27;10.70;;;7.28;;
57947;SDS011;43754;56.992;24.292;2023-01-29T03:24:23;11.27;;;7.82;;
57947;SDS011;43754;56.992;24.292;2023-01-29T03:27:19;13.13;;;8.00;;
57947;SDS011;43754;56.992;24.292;2023-01-29T03:30:14;10.15;;;7.35;;
57947;SDS011;43754;56.992;24.292;2023-01-29T03:33:28;11.00;;;7.72;;
57947;SDS011;43754;56.992;24.292;2023-01-29T03:36:07;17.13;;;8.80;;
57947;SDS011;43754;56.992;24.292;2023-01-29T03:38:44;13.50;;;8.35;;
57947;SDS011;43754;56.992;24.292;2023-01-29T03:41:19;12.00;;;8.02;;
57947;SDS011;43754;56.992;24.292;2023-01-29T03:43:58;13.63;;;8.40;;
57947;SDS011;43754;56.992;24.292;2023-01-29T03:46:40;41.25;;;21.13;;
57947;SDS011;43754;56.992;24.292;2023-01-29T03:49:23;20.92;;;12.35;;
57947;SDS011;43754;56.992;24.292;2023-01-29T03:52:07;17.27;;;10.27;;
57947;SDS011;43754;56.992;24.292;2023-01-29T03:54:49;19.77;;;10.77;;
57947;SDS011;43754;56.992;24.292;2023-01-29T03:57:30;17.33;;;8.98;;
57947;SDS011;43754;56.992;24.292;2023-01-29T04:00:09;16.80;;;9.60;;
57947;SDS011;43754;56.992;24.292;2023-01-29T04:02:49;19.95;;;10.77;;
57947;SDS011;43754;56.992;24.292;2023-01-29T04:08:13;20.88;;;9.98;;
57947;SDS011;43754;56.992;24.292;2023-01-29T04:10:51;16.17;;;9.32;;
57947;SDS011;43754;56.992;24.292;2023-01-29T04:13:27;21.90;;;10.40;;
57947;SDS011;43754;56.992;24.292;2023-01-29T04:16:05;25.23;;;11.20;;
57947;SDS011;43754;56.992;24.292;2023-01-29T04:19:01;20.75;;;11.10;;
57947;SDS011;43754;56.992;24.292;2023-01-29T04:21:44;26.33;;;10.77;;
57947;SDS011;43754;56.992;24.292;2023-01-29T04:24:19;20.58;;;10.43;;
57947;SDS011;43754;56.992;24.292;2023-01-29T04:26:57;13.35;;;9.80;;
57947;SDS011;43754;56.992;24.292;2023-01-29T04:29:39;19.40;;;10.82;;
57947;SDS011;43754;56.992;24.292;2023-01-29T04:32:22;11.60;;;8.35;;
57947;SDS011;43754;56.992;24.292;2023-01-29T04:35:00;17.10;;;8.95;;
57947;SDS011;43754;56.992;24.292;2023-01-29T04:37:42;12.60;;;8.43;;
57947;SDS011;43754;56.992;24.292;2023-01-29T04:40:22;11.23;;;7.78;;
57947;SDS011;43754;56.992;24.292;2023-01-29T04:43:02;12.95;;;8.00;;
57947;SDS011;43754;56.992;24.292;2023-01-29T04:45:40;12.95;;;8.52;;
57947;SDS011;43754;56.992;24.292;2023-01-29T04:48:19;14.95;;;8.77;;
57947;SDS011;43754;56.992;24.292;2023-01-29T04:50:56;13.93;;;8.70;;
57947;SDS011;43754;56.992;24.292;2023-01-29T04:53:36;18.20;;;9.38;;
57947;SDS011;43754;56.992;24.292;2023-01-29T04:56:18;12.93;;;9.23;;
57947;SDS011;43754;56.992;24.292;2023-01-29T04:58:54;13.10;;;8.90;;
57947;SDS011;43754;56.992;24.292;2023-01-29T05:01:32;11.57;;;8.18;;
57947;SDS011;43754;56.992;24.292;2023-01-29T05:04:08;13.95;;;9.30;;
57947;SDS011;43754;56.992;24.292;2023-01-29T05:06:44;13.10;;;9.25;;
57947;SDS011;43754;56.992;24.292;2023-01-29T05:09:19;15.05;;;10.18;;
57947;SDS011;43754;56.992;24.292;2023-01-29T05:11:52;11.85;;;8.75;;
57947;SDS011;43754;56.992;24.292;2023-01-29T05:14:26;11.32;;;8.15;;
57947;SDS011;43754;56.992;24.292;2023-01-29T05:17:01;12.73;;;9.82;;
57947;SDS011;43754;56.992;24.292;2023-01-29T05:19:36;12.32;;;8.00;;
57947;SDS011;43754;56.992;24.292;2023-01-29T05:22:08;13.48;;;8.70;;
57947;SDS011;43754;56.992;24.292;2023-01-29T05:24:44;14.27;;;9.40;;
57947;SDS011;43754;56.992;24.292;2023-01-29T05:27:17;13.60;;;8.60;;
57947;SDS011;43754;56.992;24.292;2023-01-29T05:30:10;12.50;;;8.25;;
57947;SDS011;43754;56.992;24.292;2023-01-29T05:32:42;13.27;;;8.57;;
57947;SDS011;43754;56.992;24.292;2023-01-29T05:35:14;11.73;;;7.57;;
57947;SDS011;43754;56.992;24.292;2023-01-29T05:37:46;11.82;;;7.22;;
57947;SDS011;43754;56.992;24.292;2023-01-29T05:40:20;12.48;;;9.18;;
57947;SDS011;43754;56.992;24.292;2023-01-29T05:42:52;14.82;;;9.68;;
57947;SDS011;43754;56.992;24.292;2023-01-29T05:45:24;12.73;;;9.55;;
57947;SDS011;43754;56.992;24.292;2023-01-29T05:47:56;12.27;;;8.75;;
57947;SDS011;43754;56.992;24.292;2023-01-29T05:50:29;11.05;;;8.68;;
57947;SDS011;43754;56.992;24.292;2023-01-29T05:53:02;13.68;;;9.13;;
57947;SDS011;43754;56.992;24.292;2023-01-29T05:55:35;9.38;;;7.90;;
57947;SDS011;43754;56.992;24.292;2023-01-29T05:58:07;10.43;;;7.47;;
57947;SDS011;43754;56.992;24.292;2023-01-29T06:00:39;12.18;;;7.80;;
57947;SDS011;43754;56.992;24.292;2023-01-29T06:03:12;10.18;;;7.38;;
57947;SDS011;43754;56.992;24.292;2023-01-29T06:05:44;9.75;;;7.45;;
57947;SDS011;43754;56.992;24.292;2023-01-29T06:08:16;11.65;;;8.15;;
57947;SDS011;43754;56.992;24.292;2023-01-29T06:10:49;14.27;;;8.40;;
57947;SDS011;43754;56.992;24.292;2023-01-29T06:13:21;15.30;;;9.63;;
57947;SDS011;43754;56.992;24.292;2023-01-29T06:15:54;10.52;;;7.50;;
57947;SDS011;43754;56.992;24.292;2023-01-29T06:18:26;11.40;;;8.02;;
57947;SDS011;43754;56.992;24.292;2023-01-29T06:20:59;13.23;;;9.30;;
57947;SDS011;43754;56.992;24.292;2023-01-29T06:23:32;12.98;;;9.18;;
57947;SDS011;43754;56.992;24.292;2023-01-29T06:26:06;9.82;;;7.25;;
57947;SDS011;43754;56.992;24.292;2023-01-29T06:28:40;12.80;;;8.60;;
57947;SDS011;43754;56.992;24.292;2023-01-29T06:31:13;13.30;;;9.65;;
57947;SDS011;43754;56.992;24.292;2023-01-29T06:34:05;15.98;;;9.85;;
57947;SDS011;43754;56.992;24.292;2023-01-29T06:36:37;12.50;;;9.20;;
57947;SDS011;43754;56.992;24.292;2023-01-29T06:39:09;10.40;;;7.78;;
57947;SDS011;43754;56.992;24.292;2023-01-29T06:41:42;9.98;;;7.97;;
57947;SDS011;43754;56.992;24.292;2023-01-29T06:44:15;16.23;;;10.20;;
57947;SDS011;43754;56.992;24.292;2023-01-29T06:46:47;30.92;;;15.27;;
57947;SDS011;43754;56.992;24.292;2023-01-29T06:49:19;38.35;;;16.75;;
57947;SDS011;43754;56.992;24.292;2023-01-29T06:51:51;22.88;;;13.13;;
57947;SDS011;43754;56.992;24.292;2023-01-29T06:54:23;25.88;;;15.00;;
57947;SDS011;43754;56.992;24.292;2023-01-29T06:56:57;27.23;;;14.18;;
57947;SDS011;43754;56.992;24.292;2023-01-29T06:59:29;24.45;;;12.70;;
57947;SDS011;43754;56.992;24.292;2023-01-29T07:02:01;16.38;;;11.30;;
57947;SDS011;43754;56.992;24.292;2023-01-29T07:04:34;18.67;;;12.35;;
57947;SDS011;43754;56.992;24.292;2023-01-29T07:07:07;20.73;;;12.90;;
57947;SDS011;43754;56.992;24.292;2023-01-29T07:09:43;21.50;;;12.05;;
57947;SDS011;43754;56.992;24.292;2023-01-29T07:12:17;17.40;;;10.63;;
57947;SDS011;43754;56.992;24.292;2023-01-29T07:14:49;14.15;;;10.40;;
57947;SDS011;43754;56.992;24.292;2023-01-29T07:17:21;20.13;;;12.55;;
57947;SDS011;43754;56.992;24.292;2023-01-29T07:19:53;21.17;;;13.55;;
57947;SDS011;43754;56.992;24.292;2023-01-29T07:22:25;21.67;;;14.02;;
57947;SDS011;43754;56.992;24.292;2023-01-29T07:24:57;27.67;;;17.17;;
57947;SDS011;43754;56.992;24.292;2023-01-29T07:27:30;24.50;;;14.93;;
57947;SDS011;43754;56.992;24.292;2023-01-29T07:30:03;35.33;;;17.95;;
57947;SDS011;43754;56.992;24.292;2023-01-29T07:32:35;43.70;;;22.10;;
57947;SDS011;43754;56.992;24.292;2023-01-29T07:35:07;46.42;;;23.02;;
57947;SDS011;43754;56.992;24.292;2023-01-29T07:37:40;52.25;;;25.05;;
57947;SDS011;43754;56.992;24.292;2023-01-29T07:40:12;50.40;;;26.98;;
57947;SDS011;43754;56.992;24.292;2023-01-29T07:42:46;47.60;;;27.25;;
57947;SDS011;43754;56.992;24.292;2023-01-29T07:45:18;29.98;;;19.05;;
57947;SDS011;43754;56.992;24.292;2023-01-29T07:47:50;27.27;;;14.98;;
57947;SDS011;43754;56.992;24.292;2023-01-29T07:50:23;36.40;;;19.70;;
57947;SDS011;43754;56.992;24.292;2023-01-29T07:52:56;20.60;;;13.48;;
57947;SDS011;43754;56.992;24.292;2023-01-29T07:55:28;23.73;;;14.10;;
57947;SDS011;43754;56.992;24.292;2023-01-29T07:58:02;17.92;;;12.80;;
57947;SDS011;43754;56.992;24.292;2023-01-29T08:00:34;19.50;;;14.40;;
57947;SDS011;43754;56.992;24.292;2023-01-29T08:03:09;21.20;;;13.95;;
57947;SDS011;43754;56.992;24.292;2023-01-29T08:05:44;16.23;;;11.88;;
57947;SDS011;43754;56.992;24.292;2023-01-29T08:08:16;17.33;;;11.38;;
57947;SDS011;43754;56.992;24.292;2023-01-29T08:10:49;19.10;;;12.25;;
57947;SDS011;43754;56.992;24.292;2023-01-29T08:13:23;21.17;;;13.48;;
57947;SDS011;43754;56.992;24.292;2023-01-29T08:15:57;16.90;;;12.30;;
57947;SDS011;43754;56.992;24.292;2023-01-29T08:18:30;20.23;;;13.48;;
57947;SDS011;43754;56.992;24.292;2023-01-29T08:21:02;18.10;;;12.80;;
57947;SDS011;43754;56.992;24.292;2023-01-29T08:23:34;18.38;;;12.13;;
57947;SDS011;43754;56.992;24.292;2023-01-29T08:26:07;14.63;;;10.93;;
57947;SDS011;43754;56.992;24.292;2023-01-29T08:28:40;17.77;;;11.35;;
57947;SDS011;43754;56.992;24.292;2023-01-29T08:31:13;17.40;;;12.35;;
57947;SDS011;43754;56.992;24.292;2023-01-29T08:33:45;18.63;;;11.90;;
57947;SDS011;43754;56.992;24.292;2023-01-29T08:36:18;17.70;;;12.35;;
57947;SDS011;43754;56.992;24.292;2023-01-29T08:38:50;16.50;;;12.07;;
57947;SDS011;43754;56.992;24.292;2023-01-29T08:41:22;31.42;;;16.85;;
57947;SDS011;43754;56.992;24.292;2023-01-29T08:43:55;17.35;;;12.48;;
57947;SDS011;43754;56.992;24.292;2023-01-29T08:46:28;19.90;;;14.27;;
57947;SDS011;43754;56.992;24.292;2023-01-29T08:49:00;21.10;;;12.43;;
57947;SDS011;43754;56.992;24.292;2023-01-29T08:51:32;20.25;;;13.73;;
57947;SDS011;43754;56.992;24.292;2023-01-29T08:54:04;18.17;;;12.05;;
57947;SDS011;43754;56.992;24.292;2023-01-29T08:56:36;17.95;;;12.68;;
57947;SDS011;43754;56.992;24.292;2023-01-29T08:59:10;22.85;;;14.02;;
57947;SDS011;43754;56.992;24.292;2023-01-29T09:01:42;23.63;;;16.52;;
57947;SDS011;43754;56.992;24.292;2023-01-29T09:04:14;18.92;;;13.63;;
57947;SDS011;43754;56.992;24.292;2023-01-29T09:06:46;22.10;;;14.60;;
57947;SDS011;43754;56.992;24.292;2023-01-29T09:09:17;23.23;;;13.52;;
57947;SDS011;43754;56.992;24.292;2023-01-29T09:11:49;22.55;;;14.65;;
57947;SDS011;43754;56.992;24.292;2023-01-29T09:14:23;18.20;;;10.35;;
57947;SDS011;43754;56.992;24.292;2023-01-29T09:16:55;19.52;;;12.70;;
57947;SDS011;43754;56.992;24.292;2023-01-29T09:19:27;16.02;;;11.20;;
57947;SDS011;43754;56.992;24.292;2023-01-29T09:21:59;14.05;;;10.25;;
57947;SDS011;43754;56.992;24.292;2023-01-29T09:24:31;13.02;;;8.93;;
57947;SDS011;43754;56.992;24.292;2023-01-29T09:27:05;16.40;;;10.35;;
57947;SDS011;43754;56.992;24.292;2023-01-29T09:29:39;17.42;;;11.20;;
57947;SDS011;43754;56.992;24.292;2023-01-29T09:32:11;15.98;;;10.50;;
57947;SDS011;43754;56.992;24.292;2023-01-29T09:34:43;12.65;;;9.00;;
57947;SDS011;43754;56.992;24.292;2023-01-29T09:37:15;14.10;;;9.55;;
57947;SDS011;43754;56.992;24.292;2023-01-29T09:39:48;15.20;;;9.88;;
57947;SDS011;43754;56.992;24.292;2023-01-29T09:42:20;18.23;;;10.80;;
57947;SDS011;43754;56.992;24.292;2023-01-29T09:45:01;17.95;;;12.25;;
57947;SDS011;43754;56.992;24.292;2023-01-29T09:47:36;16.42;;;11.30;;
57947;SDS011;43754;56.992;24.292;2023-01-29T09:50:11;17.85;;;11.60;;
57947;SDS011;43754;56.992;24.292;2023-01-29T09:52:50;18.65;;;10.52;;
57947;SDS011;43754;56.992;24.292;2023-01-29T09:55:28;16.30;;;10.68;;
57947;SDS011;43754;56.992;24.292;2023-01-29T09:58:09;16.45;;;10.50;;
57947;SDS011;43754;56.992;24.292;2023-01-29T10:00:47;15.40;;;10.43;;
57947;SDS011;43754;56.992;24.292;2023-01-29T10:06:47;13.00;;;9.40;;
57947;SDS011;43754;56.992;24.292;2023-01-29T10:09:42;11.38;;;7.72;;
57947;SDS011;43754;56.992;24.292;2023-01-29T10:12:38;19.33;;;10.88;;
57947;SDS011;43754;56.992;24.292;2023-01-29T10:15:27;14.10;;;9.55;;
57947;SDS011;43754;56.992;24.292;2023-01-29T10:21:15;15.50;;;9.45;;
57947;SDS011;43754;56.992;24.292;2023-01-29T10:24:00;12.13;;;9.30;;
57947;SDS011;43754;56.992;24.292;2023-01-29T10:26:43;14.50;;;10.35;;
57947;SDS011;43754;56.992;24.292;2023-01-29T10:29:18;23.33;;;12.90;;
57947;SDS011;43754;56.992;24.292;2023-01-29T10:31:52;17.90;;;11.15;;
57947;SDS011;43754;56.992;24.292;2023-01-29T10:34:30;23.05;;;12.32;;
57947;SDS011;43754;56.992;24.292;2023-01-29T10:37:11;14.27;;;10.77;;
57947;SDS011;43754;56.992;24.292;2023-01-29T10:39:47;17.00;;;10.48;;
57947;SDS011;43754;56.992;24.292;2023-01-29T10:42:23;15.70;;;10.00;;
57947;SDS011;43754;56.992;24.292;2023-01-29T10:45:08;11.95;;;9.23;;
57947;SDS011;43754;56.992;24.292;2023-01-29T10:47:55;13.45;;;9.60;;
57947;SDS011;43754;56.992;24.292;2023-01-29T10:50:51;14.55;;;9.45;;
57947;SDS011;43754;56.992;24.292;2023-01-29T10:53:32;14.88;;;10.13;;
57947;SDS011;43754;56.992;24.292;2023-01-29T10:56:26;18.20;;;9.23;;
57947;SDS011;43754;56.992;24.292;2023-01-29T10:59:22;12.75;;;8.40;;
57947;SDS011;43754;56.992;24.292;2023-01-29T11:02:07;11.43;;;8.35;;
57947;SDS011;43754;56.992;24.292;2023-01-29T11:04:45;14.18;;;9.68;;
57947;SDS011;43754;56.992;24.292;2023-01-29T11:07:19;11.45;;;7.88;;
57947;SDS011;43754;56.992;24.292;2023-01-29T11:09:55;13.75;;;9.07;;
57947;SDS011;43754;56.992;24.292;2023-01-29T11:12:32;16.90;;;11.10;;
57947;SDS011;43754;56.992;24.292;2023-01-29T11:15:11;20.70;;;16.42;;
57947;SDS011;43754;56.992;24.292;2023-01-29T11:18:01;14.32;;;10.48;;
57947;SDS011;43754;56.992;24.292;2023-01-29T11:20:36;13.23;;;9.98;;
57947;SDS011;43754;56.992;24.292;2023-01-29T11:23:22;14.73;;;9.27;;
57947;SDS011;43754;56.992;24.292;2023-01-29T11:25:58;12.68;;;7.90;;
57947;SDS011;43754;56.992;24.292;2023-01-29T11:28:35;13.57;;;9.50;;
57947;SDS011;43754;56.992;24.292;2023-01-29T11:31:19;17.75;;;10.98;;
57947;SDS011;43754;56.992;24.292;2023-01-29T11:34:00;18.35;;;11.57;;
57947;SDS011;43754;56.992;24.292;2023-01-29T11:36:34;20.95;;;10.25;;
57947;SDS011;43754;56.992;24.292;2023-01-29T11:39:12;18.67;;;11.45;;
57947;SDS011;43754;56.992;24.292;2023-01-29T11:41:48;18.02;;;12.05;;
57947;SDS011;43754;56.992;24.292;2023-01-29T11:44:27;25.27;;;14.75;;
57947;SDS011;43754;56.992;24.292;2023-01-29T11:47:11;19.20;;;10.60;;
57947;SDS011;43754;56.992;24.292;2023-01-29T11:49:49;16.90;;;9.63;;
57947;SDS011;43754;56.992;24.292;2023-01-29T11:52:23;15.52;;;8.27;;
57947;SDS011;43754;56.992;24.292;2023-01-29T11:54:59;17.70;;;10.10;;
57947;SDS011;43754;56.992;24.292;2023-01-29T11:57:34;14.48;;;8.82;;
57947;SDS011;43754;56.992;24.292;2023-01-29T12:00:15;15.73;;;10.35;;
57947;SDS011;43754;56.992;24.292;2023-01-29T12:02:52;18.63;;;11.88;;
57947;SDS011;43754;56.992;24.292;2023-01-29T12:05:26;17.02;;;10.40;;
57947;SDS011;43754;56.992;24.292;2023-01-29T12:07:59;15.98;;;9.40;;
57947;SDS011;43754;56.992;24.292;2023-01-29T12:10:35;18.08;;;11.65;;
57947;SDS011;43754;56.992;24.292;2023-01-29T12:13:15;14.13;;;8.73;;
57947;SDS011;43754;56.992;24.292;2023-01-29T12:16:14;14.13;;;9.00;;
57947;SDS011;43754;56.992;24.292;2023-01-29T12:18:53;16.33;;;9.80;;
57947;SDS011;43754;56.992;24.292;2023-01-29T12:21:30;12.57;;;8.80;;
57947;SDS011;43754;56.992;24.292;2023-01-29T12:24:10;15.50;;;8.85;;
57947;SDS011;43754;56.992;24.292;2023-01-29T12:26:50;14.57;;;9.52;;
57947;SDS011;43754;56.992;24.292;2023-01-29T12:29:30;16.88;;;9.32;;
57947;SDS011;43754;56.992;24.292;2023-01-29T12:32:10;14.80;;;10.18;;
57947;SDS011;43754;56.992;24.292;2023-01-29T12:34:54;15.60;;;9.05;;
57947;SDS011;43754;56.992;24.292;2023-01-29T12:37:36;21.13;;;11.18;;
57947;SDS011;43754;56.992;24.292;2023-01-29T12:40:12;18.83;;;10.02;;
57947;SDS011;43754;56.992;24.292;2023-01-29T12:42:48;15.60;;;9.68;;
57947;SDS011;43754;56.992;24.292;2023-01-29T12:45:25;13.70;;;7.47;;
57947;SDS011;43754;56.992;24.292;2023-01-29T12:48:00;13.88;;;8.48;;
57947;SDS011;43754;56.992;24.292;2023-01-29T12:50:36;14.27;;;8.88;;
57947;SDS011;43754;56.992;24.292;2023-01-29T12:53:14;13.82;;;7.82;;
57947;SDS011;43754;56.992;24.292;2023-01-29T12:55:57;12.98;;;7.18;;
57947;SDS011;43754;56.992;24.292;2023-01-29T12:58:35;12.20;;;8.05;;
57947;SDS011;43754;56.992;24.292;2023-01-29T13:01:13;13.45;;;7.68;;
57947;SDS011;43754;56.992;24.292;2023-01-29T13:03:48;22.02;;;11.27;;
57947;SDS011;43754;56.992;24.292;2023-01-29T13:06:25;13.57;;;8.50;;
57947;SDS011;43754;56.992;24.292;2023-01-29T13:09:02;15.75;;;9.10;;
57947;SDS011;43754;56.992;24.292;2023-01-29T13:11:37;19.90;;;9.18;;
57947;SDS011;43754;56.992;24.292;2023-01-29T13:14:15;13.27;;;8.68;;
57947;SDS011;43754;56.992;24.292;2023-01-29T13:16:54;16.20;;;7.72;;
57947;SDS011;43754;56.992;24.292;2023-01-29T13:19:34;15.07;;;8.27;;
57947;SDS011;43754;56.992;24.292;2023-01-29T13:22:13;11.98;;;7.20;;
57947;SDS011;43754;56.992;24.292;2023-01-29T13:24:50;14.27;;;8.38;;
57947;SDS011;43754;56.992;24.292;2023-01-29T13:27:35;15.18;;;8.48;;
57947;SDS011;43754;56.992;24.292;2023-01-29T13:30:21;16.23;;;8.50;;
57947;SDS011;43754;56.992;24.292;2023-01-29T13:32:55;15.18;;;8.80;;
57947;SDS011;43754;56.992;24.292;2023-01-29T13:35:41;18.05;;;9.02;;
57947;SDS011;43754;56.992;24.292;2023-01-29T13:38:20;24.30;;;12.27;;
57947;SDS011;43754;56.992;24.292;2023-01-29T13:40:58;18.00;;;9.80;;
57947;SDS011;43754;56.992;24.292;2023-01-29T13:43:33;19.05;;;9.80;;
57947;SDS011;43754;56.992;24.292;2023-01-29T13:46:08;15.55;;;8.98;;
57947;SDS011;43754;56.992;24.292;2023-01-29T13:48:43;17.05;;;9.05;;
57947;SDS011;43754;56.992;24.292;2023-01-29T13:51:19;14.73;;;9.23;;
57947;SDS011;43754;56.992;24.292;2023-01-29T13:53:53;19.42;;;9.48;;
57947;SDS011;43754;56.992;24.292;2023-01-29T13:56:29;17.63;;;8.70;;
57947;SDS011;43754;56.992;24.292;2023-01-29T13:59:20;12.88;;;7.82;;
57947;SDS011;43754;56.992;24.292;2023-01-29T14:04:35;12.75;;;7.45;;
57947;SDS011;43754;56.992;24.292;2023-01-29T14:07:37;18.40;;;10.35;;
57947;SDS011;43754;56.992;24.292;2023-01-29T14:10:19;22.60;;;11.50;;
57947;SDS011;43754;56.992;24.292;2023-01-29T14:13:26;19.33;;;10.20;;
57947;SDS011;43754;56.992;24.292;2023-01-29T14:19:05;20.75;;;9.60;;
57947;SDS011;43754;56.992;24.292;2023-01-29T14:21:38;21.70;;;9.00;;
57947;SDS011;43754;56.992;24.292;2023-01-29T14:24:15;14.50;;;8.77;;
57947;SDS011;43754;56.992;24.292;2023-01-29T14:26:52;17.88;;;7.47;;
57947;SDS011;43754;56.992;24.292;2023-01-29T14:29:26;16.90;;;8.15;;
57947;SDS011;43754;56.992;24.292;2023-01-29T14:32:08;24.95;;;9.90;;
57947;SDS011;43754;56.992;24.292;2023-01-29T14:37:20;31.08;;;9.95;;
57947;SDS011;43754;56.992;24.292;2023-01-29T14:40:05;20.20;;;8.48;;
57947;SDS011;43754;56.992;24.292;2023-01-29T14:42:49;45.17;;;14.80;;
57947;SDS011;43754;56.992;24.292;2023-01-29T14:45:27;50.92;;;15.98;;
57947;SDS011;43754;56.992;24.292;2023-01-29T14:48:37;79.40;;;26.40;;
57947;SDS011;43754;56.992;24.292;2023-01-29T14:51:08;42.40;;;17.05;;
57947;SDS011;43754;56.992;24.292;2023-01-29T14:53:45;35.60;;;13.80;;
57947;SDS011;43754;56.992;24.292;2023-01-29T14:56:27;36.88;;;13.95;;
57947;SDS011;43754;56.992;24.292;2023-01-29T14:59:10;39.05;;;17.58;;
57947;SDS011;43754;56.992;24.292;2023-01-29T15:01:47;35.15;;;14.38;;
57947;SDS011;43754;56.992;24.292;2023-01-29T15:04:24;58.78;;;21.75;;
57947;SDS011;43754;56.992;24.292;2023-01-29T15:06:58;42.38;;;14.50;;
57947;SDS011;43754;56.992;24.292;2023-01-29T15:09:36;72.18;;;26.08;;
57947;SDS011;43754;56.992;24.292;2023-01-29T15:12:16;75.00;;;27.90;;
57947;SDS011;43754;56.992;24.292;2023-01-29T15:14:58;46.30;;;20.00;;
57947;SDS011;43754;56.992;24.292;2023-01-29T15:17:39;27.77;;;12.82;;
57947;SDS011;43754;56.992;24.292;2023-01-29T15:20:26;19.13;;;9.25;;
57947;SDS011;43754;56.992;24.292;2023-01-29T15:23:03;15.77;;;6.43;;
57947;SDS011;43754;56.992;24.292;2023-01-29T15:25:54;18.25;;;7.20;;
57947;SDS011;43754;56.992;24.292;2023-01-29T15:28:30;17.10;;;6.18;;
57947;SDS011;43754;56.992;24.292;2023-01-29T15:31:04;30.02;;;10.70;;
57947;SDS011;43754;56.992;24.292;2023-01-29T15:33:44;43.00;;;16.17;;
57947;SDS011;43754;56.992;24.292;2023-01-29T15:36:19;29.20;;;11.48;;
57947;SDS011;43754;56.992;24.292;2023-01-29T15:39:06;18.85;;;7.55;;
57947;SDS011;43754;56.992;24.292;2023-01-29T15:41:45;20.90;;;7.50;;
57947;SDS011;43754;56.992;24.292;2023-01-29T15:44:20;25.23;;;9.25;;
57947;SDS011;43754;56.992;24.292;2023-01-29T15:46:53;25.45;;;9.90;;
57947;SDS011;43754;56.992;24.292;2023-01-29T15:49:28;36.92;;;14.25;;